Αναφορές Αεροδρομίων

 

KSJC - San Jose, California, USA
Distance from station: ΒΑ 14km
Ενημερώθηκε: 21/10/2020 09:53
Αίθριος
Αίθριος
 Ανεμος από calm
Ανεμος: Απνοια
Θερμοκρασία: 18°C
Σημείο Δρόσου: 10°C
Υγρασία: 60%
Βαρόμετρο: 1010.2 hPa
Clouds: Αίθριος
Visibility: 16 km
2020/10/21 06:53 KSJC 210653Z 00000KT 10SM CLR 18/10 A2983 RMK AO2 SLP102 LAST T01830100
KNUQ - Moffett Nas/Mtn, California, USA
Distance from station: Β 14km
Ενημερώθηκε: 21/10/2020 10:30
Αίθριος
Αίθριος
 Ανεμος από calm
Ανεμος: Απνοια
Θερμοκρασία: 17°C
Σημείο Δρόσου: 13°C
Υγρασία: 77%
Βαρόμετρο: 1010.2 hPa
Clouds: Αίθριος
Visibility: 16 km
2020/10/21 07:30 KNUQ 210730Z AUTO 00000KT 10SM CLR 17/13 A2983 RMK AO2
 
KPAO - Palo Alto, California, USA
Distance from station: ΒΒΔ 23km
Ενημερώθηκε: 21/10/2020 02:47
NOT Current
Αίθριος
Αίθριος
 Ανεμος από Β
Ανεμος: Β 11 km/h
Θερμοκρασία: 24°C
Σημείο Δρόσου: 16°C
Υγρασία: 61%
Βαρόμετρο: 1009.8 hPa
Clouds: Αίθριος
Visibility: 16 km
2020/10/20 23:47 KPAO 202347Z 35006KT 10SM SKC 24/16 A2982
KRHV - San Jose/Reid, California, USA
Distance from station: ΑΒΑ 19km
Ενημερώθηκε: 21/10/2020 07:47
NOT Current
Αίθριος
Αίθριος
 Ανεμος από calm
Ανεμος: Απνοια
Θερμοκρασία: 20°C
Σημείο Δρόσου: 9°C
Υγρασία: 49%
Βαρόμετρο: 1010.8 hPa
Clouds: Αίθριος
Visibility: 16 km
2020/10/21 04:47 KRHV 210447Z 00000KT 10SM SKC 20/09 A2985 RMK LAST
 
KOAK - Oakland, California, USA
Distance from station: ΒΒΔ 50km
Ενημερώθηκε: 21/10/2020 09:53
Αίθριος
Αίθριος
 Ανεμος από calm
Ανεμος: Απνοια
Θερμοκρασία: 16°C
Σημείο Δρόσου: 12°C
Υγρασία: 77%
Βαρόμετρο: 1010.8 hPa
Clouds: Αίθριος
Visibility: 16 km
2020/10/21 06:53 KOAK 210653Z 00000KT 10SM CLR 16/12 A2985 RMK AO2 SLP105 T01610117
KSQL - San Carlos Airpo, California, USA
Distance from station: ΒΔ 34km
Ενημερώθηκε: 21/10/2020 10:35
Αίθριος
Αίθριος
 Ανεμος από calm
Ανεμος: Απνοια
Θερμοκρασία: 17°C
Σημείο Δρόσου: 10°C
Υγρασία: 64%
Βαρόμετρο: 1010.5 hPa
Clouds: Αίθριος
Visibility: 16 km
2020/10/21 07:35 KSQL 210735Z AUTO 00000KT 10SM CLR 17/10 A2984 RMK AO2
 
KSFO - San Francisco, California, USA
Distance from station: ΒΔ 49km
Ενημερώθηκε: 21/10/2020 09:56
Αίθριος
Αίθριος
 Ανεμος από ΒΔ
Ανεμος: ΒΔ 13 km/h
Θερμοκρασία: 16°C
Σημείο Δρόσου: 11°C
Υγρασία: 72%
Βαρόμετρο: 1010.2 hPa
Clouds: Αίθριος
Visibility: 16 km
2020/10/21 06:56 KSFO 210656Z 31007KT 10SM CLR 16/11 A2983 RMK AO2 SLP102 T01560106
KE16 - San Martin, California, USA
Distance from station: ΑΝΑ 43km
Ενημερώθηκε: 21/10/2020 10:10

 Ανεμος από calm
Ανεμος: Απνοια
Θερμοκρασία: 14°C
Σημείο Δρόσου: 9°C
Υγρασία: 72%
Βαρόμετρο: 1011.5 hPa
Visibility: 16 km
2020/10/21 07:10 KE16 210710Z AUTO 00000KT 10SM 14/09 A2987 RMK AO2 PWINO PNO
 
KWVI - Watsonville, California, USA
Distance from station: ΝΝΑ 44km
Ενημερώθηκε: 21/10/2020 09:53
Αίθριος
Αίθριος
 Ανεμος από calm
Ανεμος: Απνοια
Θερμοκρασία: 11°C
Σημείο Δρόσου: 10°C
Υγρασία: 94%
Βαρόμετρο: 1011.2 hPa
Clouds: Αίθριος
Visibility: 16 km
2020/10/21 06:53 KWVI 210653Z AUTO 00000KT 10SM CLR 11/10 A2986 RMK AO2 SLP109 T01060100
KHAF - Half Moon Bay, California, USA
Distance from station: ΔΒΔ 50km
Ενημερώθηκε: 21/10/2020 10:35
Σχεδόν νεφελώδης
Σχεδόν νεφελώδης
 Ανεμος από calm
Ανεμος: Απνοια
Θερμοκρασία: 8°C
Σημείο Δρόσου: 7°C
Υγρασία: 93%
Βαρόμετρο: 1010.8 hPa
Clouds: Σχεδόν νεφελώδης
Visibility: 16 km
Cloud details: Σχεδόν νεφελώδης 122 m
2020/10/21 07:35 KHAF 210735Z AUTO 00000KT 10SM BKN004 08/07 A2985 RMK AO2
 
KHWD - Hayward, California, USA
Distance from station: Β 44km
Ενημερώθηκε: 21/10/2020 09:54
Αίθριος
Αίθριος
 Ανεμος από calm
Ανεμος: Απνοια
Θερμοκρασία: 17°C
Σημείο Δρόσου: 10°C
Υγρασία: 64%
Βαρόμετρο: 1010.2 hPa
Clouds: Αίθριος
Visibility: 16 km
2020/10/21 06:54 KHWD 210654Z AUTO 00000KT 10SM CLR 17/10 A2983 RMK AO2 SLP110 T01720100
KLVK - Livermore, California, USA
Distance from station: ΒΒΑ 51km
Ενημερώθηκε: 21/10/2020 09:53
Αίθριος
Αίθριος
 Ανεμος από calm
Ανεμος: Απνοια
Θερμοκρασία: 17°C
Σημείο Δρόσου: 5°C
Υγρασία: 45%
Βαρόμετρο: 1010.5 hPa
Clouds: Αίθριος
Visibility: 16 km
2020/10/21 06:53 KLVK 210653Z AUTO 00000KT 10SM CLR 17/05 A2984 RMK AO2 SLP100 T01670050